sensor_id;sensor_type;location;lat;lon;timestamp;P1;durP1;ratioP1;P2;durP2;ratioP2
78209;SDS011;67485;48.816;9.930;2023-05-10T00:02:09;1.52;;;0.80;;
78209;SDS011;67485;48.816;9.930;2023-05-10T00:04:34;3.00;;;0.80;;
78209;SDS011;67485;48.816;9.930;2023-05-10T00:07:00;1.40;;;1.00;;
78209;SDS011;67485;48.816;9.930;2023-05-10T00:09:26;2.03;;;0.80;;
78209;SDS011;67485;48.816;9.930;2023-05-10T00:11:52;1.80;;;0.90;;
78209;SDS011;67485;48.816;9.930;2023-05-10T00:14:18;4.88;;;1.05;;
78209;SDS011;67485;48.816;9.930;2023-05-10T00:16:44;1.77;;;1.00;;
78209;SDS011;67485;48.816;9.930;2023-05-10T00:19:09;1.77;;;0.77;;
78209;SDS011;67485;48.816;9.930;2023-05-10T00:21:35;4.27;;;1.20;;
78209;SDS011;67485;48.816;9.930;2023-05-10T00:24:01;1.90;;;1.10;;
78209;SDS011;67485;48.816;9.930;2023-05-10T00:26:26;1.87;;;1.00;;
78209;SDS011;67485;48.816;9.930;2023-05-10T00:28:54;2.95;;;1.13;;
78209;SDS011;67485;48.816;9.930;2023-05-10T00:31:20;5.10;;;1.30;;
78209;SDS011;67485;48.816;9.930;2023-05-10T00:33:45;4.37;;;1.50;;
78209;SDS011;67485;48.816;9.930;2023-05-10T00:36:11;1.95;;;1.05;;
78209;SDS011;67485;48.816;9.930;2023-05-10T00:38:37;3.60;;;1.10;;
78209;SDS011;67485;48.816;9.930;2023-05-10T00:41:03;3.80;;;1.00;;
78209;SDS011;67485;48.816;9.930;2023-05-10T00:43:31;5.00;;;0.90;;
78209;SDS011;67485;48.816;9.930;2023-05-10T00:45:57;1.63;;;0.87;;
78209;SDS011;67485;48.816;9.930;2023-05-10T00:48:22;2.30;;;0.95;;
78209;SDS011;67485;48.816;9.930;2023-05-10T00:50:48;1.88;;;1.00;;
78209;SDS011;67485;48.816;9.930;2023-05-10T00:53:14;3.70;;;1.07;;
78209;SDS011;67485;48.816;9.930;2023-05-10T00:55:41;1.87;;;0.80;;
78209;SDS011;67485;48.816;9.930;2023-05-10T00:58:07;1.40;;;0.90;;
78209;SDS011;67485;48.816;9.930;2023-05-10T01:00:33;1.27;;;0.82;;
78209;SDS011;67485;48.816;9.930;2023-05-10T01:02:59;1.10;;;0.65;;
78209;SDS011;67485;48.816;9.930;2023-05-10T01:05:25;1.70;;;0.80;;
78209;SDS011;67485;48.816;9.930;2023-05-10T01:07:52;1.20;;;0.70;;
78209;SDS011;67485;48.816;9.930;2023-05-10T01:10:18;1.98;;;0.70;;
78209;SDS011;67485;48.816;9.930;2023-05-10T01:12:45;1.17;;;0.70;;
78209;SDS011;67485;48.816;9.930;2023-05-10T01:15:14;2.47;;;0.70;;
78209;SDS011;67485;48.816;9.930;2023-05-10T01:17:43;2.03;;;0.80;;
78209;SDS011;67485;48.816;9.930;2023-05-10T01:28:48;1.83;;;0.60;;
78209;SDS011;67485;48.816;9.930;2023-05-10T01:34:46;0.90;;;0.52;;
78209;SDS011;67485;48.816;9.930;2023-05-10T01:37:25;1.45;;;0.60;;
78209;SDS011;67485;48.816;9.930;2023-05-10T01:40:08;2.80;;;0.50;;
78209;SDS011;67485;48.816;9.930;2023-05-10T01:42:52;1.83;;;0.50;;
78209;SDS011;67485;48.816;9.930;2023-05-10T01:45:32;1.52;;;0.60;;
78209;SDS011;67485;48.816;9.930;2023-05-10T01:48:06;1.65;;;0.60;;
78209;SDS011;67485;48.816;9.930;2023-05-10T01:50:35;1.00;;;0.57;;
78209;SDS011;67485;48.816;9.930;2023-05-10T01:53:05;1.20;;;0.60;;
78209;SDS011;67485;48.816;9.930;2023-05-10T01:55:34;3.28;;;0.60;;
78209;SDS011;67485;48.816;9.930;2023-05-10T01:58:06;1.25;;;0.40;;
78209;SDS011;67485;48.816;9.930;2023-05-10T02:00:35;1.48;;;0.65;;
78209;SDS011;67485;48.816;9.930;2023-05-10T02:03:04;1.00;;;0.55;;
78209;SDS011;67485;48.816;9.930;2023-05-10T02:05:32;0.80;;;0.60;;
78209;SDS011;67485;48.816;9.930;2023-05-10T02:07:59;1.65;;;0.60;;
78209;SDS011;67485;48.816;9.930;2023-05-10T02:10:28;1.00;;;0.60;;
78209;SDS011;67485;48.816;9.930;2023-05-10T02:12:55;0.90;;;0.60;;
78209;SDS011;67485;48.816;9.930;2023-05-10T02:15:24;0.80;;;0.50;;
78209;SDS011;67485;48.816;9.930;2023-05-10T02:17:51;0.93;;;0.50;;
78209;SDS011;67485;48.816;9.930;2023-05-10T02:20:19;0.80;;;0.50;;
78209;SDS011;67485;48.816;9.930;2023-05-10T02:22:47;0.80;;;0.60;;
78209;SDS011;67485;48.816;9.930;2023-05-10T02:25:16;0.88;;;0.60;;
78209;SDS011;67485;48.816;9.930;2023-05-10T02:27:43;1.00;;;0.60;;
78209;SDS011;67485;48.816;9.930;2023-05-10T02:30:10;2.03;;;0.60;;
78209;SDS011;67485;48.816;9.930;2023-05-10T02:32:36;0.70;;;0.47;;
78209;SDS011;67485;48.816;9.930;2023-05-10T02:35:03;2.25;;;0.60;;
78209;SDS011;67485;48.816;9.930;2023-05-10T02:37:30;1.52;;;0.60;;
78209;SDS011;67485;48.816;9.930;2023-05-10T02:39:57;1.50;;;0.60;;
78209;SDS011;67485;48.816;9.930;2023-05-10T02:42:25;1.50;;;0.70;;
78209;SDS011;67485;48.816;9.930;2023-05-10T02:44:53;1.63;;;0.70;;
78209;SDS011;67485;48.816;9.930;2023-05-10T02:47:24;2.28;;;0.70;;
78209;SDS011;67485;48.816;9.930;2023-05-10T02:49:50;1.92;;;0.80;;
78209;SDS011;67485;48.816;9.930;2023-05-10T02:52:19;1.10;;;0.70;;
78209;SDS011;67485;48.816;9.930;2023-05-10T02:54:49;1.20;;;0.80;;
78209;SDS011;67485;48.816;9.930;2023-05-10T02:57:17;1.30;;;0.82;;
78209;SDS011;67485;48.816;9.930;2023-05-10T02:59:50;1.25;;;0.90;;
78209;SDS011;67485;48.816;9.930;2023-05-10T03:02:16;1.43;;;1.00;;
78209;SDS011;67485;48.816;9.930;2023-05-10T03:04:42;1.42;;;1.08;;
78209;SDS011;67485;48.816;9.930;2023-05-10T03:07:08;2.30;;;0.88;;
78209;SDS011;67485;48.816;9.930;2023-05-10T03:09:34;2.53;;;0.90;;
78209;SDS011;67485;48.816;9.930;2023-05-10T03:20:10;1.65;;;1.00;;
78209;SDS011;67485;48.816;9.930;2023-05-10T03:22:40;3.40;;;1.00;;
78209;SDS011;67485;48.816;9.930;2023-05-10T03:25:10;1.30;;;0.90;;
78209;SDS011;67485;48.816;9.930;2023-05-10T03:27:40;2.65;;;0.95;;
78209;SDS011;67485;48.816;9.930;2023-05-10T03:30:08;1.30;;;0.90;;
78209;SDS011;67485;48.816;9.930;2023-05-10T03:32:37;2.30;;;0.90;;
78209;SDS011;67485;48.816;9.930;2023-05-10T03:35:09;2.60;;;0.80;;
78209;SDS011;67485;48.816;9.930;2023-05-10T03:37:37;1.20;;;0.80;;
78209;SDS011;67485;48.816;9.930;2023-05-10T03:40:02;1.95;;;0.80;;
78209;SDS011;67485;48.816;9.930;2023-05-10T03:42:31;1.35;;;0.85;;
78209;SDS011;67485;48.816;9.930;2023-05-10T03:44:57;1.70;;;0.90;;
78209;SDS011;67485;48.816;9.930;2023-05-10T03:47:23;1.30;;;0.70;;
78209;SDS011;67485;48.816;9.930;2023-05-10T03:49:49;2.27;;;1.00;;
78209;SDS011;67485;48.816;9.930;2023-05-10T03:52:15;2.28;;;0.90;;
78209;SDS011;67485;48.816;9.930;2023-05-10T03:54:40;2.20;;;0.83;;
78209;SDS011;67485;48.816;9.930;2023-05-10T03:57:06;1.38;;;1.00;;
78209;SDS011;67485;48.816;9.930;2023-05-10T03:59:32;3.80;;;1.30;;
78209;SDS011;67485;48.816;9.930;2023-05-10T04:01:58;1.63;;;0.98;;
78209;SDS011;67485;48.816;9.930;2023-05-10T04:04:23;1.87;;;1.00;;
78209;SDS011;67485;48.816;9.930;2023-05-10T04:06:49;2.47;;;1.10;;
78209;SDS011;67485;48.816;9.930;2023-05-10T04:09:15;1.98;;;1.10;;
78209;SDS011;67485;48.816;9.930;2023-05-10T04:11:41;2.47;;;1.17;;
78209;SDS011;67485;48.816;9.930;2023-05-10T04:14:07;1.55;;;1.00;;
78209;SDS011;67485;48.816;9.930;2023-05-10T04:16:33;1.60;;;1.17;;
78209;SDS011;67485;48.816;9.930;2023-05-10T04:18:58;2.05;;;1.15;;
78209;SDS011;67485;48.816;9.930;2023-05-10T04:21:25;1.40;;;0.90;;
78209;SDS011;67485;48.816;9.930;2023-05-10T04:23:50;1.67;;;1.10;;
78209;SDS011;67485;48.816;9.930;2023-05-10T04:26:16;1.60;;;1.20;;
78209;SDS011;67485;48.816;9.930;2023-05-10T04:28:42;3.37;;;1.43;;
78209;SDS011;67485;48.816;9.930;2023-05-10T04:31:08;1.70;;;1.27;;
78209;SDS011;67485;48.816;9.930;2023-05-10T04:33:35;3.37;;;1.43;;
78209;SDS011;67485;48.816;9.930;2023-05-10T04:36:01;3.15;;;1.60;;
78209;SDS011;67485;48.816;9.930;2023-05-10T04:38:28;1.80;;;1.35;;
78209;SDS011;67485;48.816;9.930;2023-05-10T04:40:54;1.75;;;1.23;;
78209;SDS011;67485;48.816;9.930;2023-05-10T04:43:28;2.58;;;1.50;;
78209;SDS011;67485;48.816;9.930;2023-05-10T04:45:56;1.67;;;1.10;;
78209;SDS011;67485;48.816;9.930;2023-05-10T04:48:22;2.45;;;1.30;;
78209;SDS011;67485;48.816;9.930;2023-05-10T04:50:47;1.93;;;1.20;;
78209;SDS011;67485;48.816;9.930;2023-05-10T04:53:13;2.30;;;1.17;;
78209;SDS011;67485;48.816;9.930;2023-05-10T04:55:39;4.93;;;1.23;;
78209;SDS011;67485;48.816;9.930;2023-05-10T04:58:04;2.75;;;1.00;;
78209;SDS011;67485;48.816;9.930;2023-05-10T05:00:30;2.10;;;0.87;;
78209;SDS011;67485;48.816;9.930;2023-05-10T05:02:56;3.30;;;1.10;;
78209;SDS011;67485;48.816;9.930;2023-05-10T05:05:21;4.20;;;0.88;;
78209;SDS011;67485;48.816;9.930;2023-05-10T05:07:47;2.03;;;0.80;;
78209;SDS011;67485;48.816;9.930;2023-05-10T05:10:12;2.70;;;1.00;;
78209;SDS011;67485;48.816;9.930;2023-05-10T05:12:38;1.30;;;0.87;;
78209;SDS011;67485;48.816;9.930;2023-05-10T05:15:04;2.38;;;0.85;;
78209;SDS011;67485;48.816;9.930;2023-05-10T05:17:30;1.27;;;0.70;;
78209;SDS011;67485;48.816;9.930;2023-05-10T05:19:56;1.98;;;0.90;;
78209;SDS011;67485;48.816;9.930;2023-05-10T05:22:22;13.30;;;1.08;;
78209;SDS011;67485;48.816;9.930;2023-05-10T05:24:55;2.80;;;0.70;;
78209;SDS011;67485;48.816;9.930;2023-05-10T05:27:23;1.52;;;0.90;;
78209;SDS011;67485;48.816;9.930;2023-05-10T05:29:54;3.70;;;1.15;;
78209;SDS011;67485;48.816;9.930;2023-05-10T05:32:21;1.30;;;0.85;;
78209;SDS011;67485;48.816;9.930;2023-05-10T05:34:47;3.22;;;1.40;;
78209;SDS011;67485;48.816;9.930;2023-05-10T05:37:16;1.70;;;0.90;;
78209;SDS011;67485;48.816;9.930;2023-05-10T05:39:43;1.42;;;0.90;;
78209;SDS011;67485;48.816;9.930;2023-05-10T05:42:09;2.92;;;1.00;;
78209;SDS011;67485;48.816;9.930;2023-05-10T05:44:35;2.47;;;1.00;;
78209;SDS011;67485;48.816;9.930;2023-05-10T05:47:01;2.50;;;0.93;;
78209;SDS011;67485;48.816;9.930;2023-05-10T05:49:27;1.77;;;1.00;;
78209;SDS011;67485;48.816;9.930;2023-05-10T05:51:53;2.53;;;0.90;;
78209;SDS011;67485;48.816;9.930;2023-05-10T05:54:19;1.40;;;1.00;;
78209;SDS011;67485;48.816;9.930;2023-05-10T05:56:44;1.30;;;0.90;;
78209;SDS011;67485;48.816;9.930;2023-05-10T05:59:10;2.37;;;1.20;;
78209;SDS011;67485;48.816;9.930;2023-05-10T06:01:36;1.90;;;1.00;;
78209;SDS011;67485;48.816;9.930;2023-05-10T06:04:02;2.25;;;1.15;;
78209;SDS011;67485;48.816;9.930;2023-05-10T06:06:28;4.03;;;0.90;;
78209;SDS011;67485;48.816;9.930;2023-05-10T06:08:54;2.60;;;1.10;;
78209;SDS011;67485;48.816;9.930;2023-05-10T06:11:20;2.00;;;1.20;;
78209;SDS011;67485;48.816;9.930;2023-05-10T06:13:46;2.83;;;1.27;;
78209;SDS011;67485;48.816;9.930;2023-05-10T06:16:12;1.83;;;1.10;;
78209;SDS011;67485;48.816;9.930;2023-05-10T06:18:39;6.32;;;1.27;;
78209;SDS011;67485;48.816;9.930;2023-05-10T06:21:04;1.90;;;1.23;;
78209;SDS011;67485;48.816;9.930;2023-05-10T06:23:30;3.97;;;1.50;;
78209;SDS011;67485;48.816;9.930;2023-05-10T06:25:56;2.10;;;1.38;;
78209;SDS011;67485;48.816;9.930;2023-05-10T06:28:21;5.43;;;1.23;;
78209;SDS011;67485;48.816;9.930;2023-05-10T06:30:47;2.67;;;1.33;;
78209;SDS011;67485;48.816;9.930;2023-05-10T06:33:13;2.17;;;1.30;;
78209;SDS011;67485;48.816;9.930;2023-05-10T06:35:38;4.15;;;1.30;;
78209;SDS011;67485;48.816;9.930;2023-05-10T06:38:04;2.20;;;1.17;;
78209;SDS011;67485;48.816;9.930;2023-05-10T06:40:30;6.70;;;1.40;;
78209;SDS011;67485;48.816;9.930;2023-05-10T06:42:55;1.90;;;1.37;;
78209;SDS011;67485;48.816;9.930;2023-05-10T06:45:21;2.87;;;1.20;;
78209;SDS011;67485;48.816;9.930;2023-05-10T06:47:47;2.37;;;1.13;;
78209;SDS011;67485;48.816;9.930;2023-05-10T06:50:12;2.00;;;1.40;;
78209;SDS011;67485;48.816;9.930;2023-05-10T06:52:38;2.63;;;1.37;;
78209;SDS011;67485;48.816;9.930;2023-05-10T06:55:04;3.90;;;1.50;;
78209;SDS011;67485;48.816;9.930;2023-05-10T06:57:31;1.80;;;1.38;;
78209;SDS011;67485;48.816;9.930;2023-05-10T06:59:57;3.50;;;1.40;;
78209;SDS011;67485;48.816;9.930;2023-05-10T07:02:24;3.97;;;1.45;;
78209;SDS011;67485;48.816;9.930;2023-05-10T07:04:49;2.00;;;1.40;;
78209;SDS011;67485;48.816;9.930;2023-05-10T07:07:17;2.13;;;1.30;;
78209;SDS011;67485;48.816;9.930;2023-05-10T07:09:42;2.03;;;1.10;;
78209;SDS011;67485;48.816;9.930;2023-05-10T07:12:08;3.45;;;1.40;;
78209;SDS011;67485;48.816;9.930;2023-05-10T07:14:34;1.73;;;1.30;;
78209;SDS011;67485;48.816;9.930;2023-05-10T07:16:59;2.85;;;1.30;;
78209;SDS011;67485;48.816;9.930;2023-05-10T07:19:25;3.47;;;1.30;;
78209;SDS011;67485;48.816;9.930;2023-05-10T07:21:51;2.08;;;1.17;;
78209;SDS011;67485;48.816;9.930;2023-05-10T07:24:17;2.63;;;1.20;;
78209;SDS011;67485;48.816;9.930;2023-05-10T07:26:42;2.60;;;1.40;;
78209;SDS011;67485;48.816;9.930;2023-05-10T07:29:08;3.43;;;1.20;;
78209;SDS011;67485;48.816;9.930;2023-05-10T07:31:35;5.60;;;1.55;;
78209;SDS011;67485;48.816;9.930;2023-05-10T07:34:00;2.47;;;1.38;;
78209;SDS011;67485;48.816;9.930;2023-05-10T07:36:26;5.30;;;1.37;;
78209;SDS011;67485;48.816;9.930;2023-05-10T07:38:53;2.80;;;1.30;;
78209;SDS011;67485;48.816;9.930;2023-05-10T07:41:18;2.95;;;1.52;;
78209;SDS011;67485;48.816;9.930;2023-05-10T07:43:44;2.50;;;1.60;;
78209;SDS011;67485;48.816;9.930;2023-05-10T07:46:10;2.78;;;1.23;;
78209;SDS011;67485;48.816;9.930;2023-05-10T07:48:36;2.70;;;1.20;;
78209;SDS011;67485;48.816;9.930;2023-05-10T07:51:02;2.15;;;1.10;;
78209;SDS011;67485;48.816;9.930;2023-05-10T07:53:28;2.72;;;1.40;;
78209;SDS011;67485;48.816;9.930;2023-05-10T07:55:54;2.27;;;1.40;;
78209;SDS011;67485;48.816;9.930;2023-05-10T07:58:23;2.60;;;1.25;;
78209;SDS011;67485;48.816;9.930;2023-05-10T08:00:50;2.53;;;1.50;;
78209;SDS011;67485;48.816;9.930;2023-05-10T08:03:15;3.83;;;1.20;;
78209;SDS011;67485;48.816;9.930;2023-05-10T08:05:41;2.43;;;1.27;;
78209;SDS011;67485;48.816;9.930;2023-05-10T08:08:07;1.87;;;1.20;;
78209;SDS011;67485;48.816;9.930;2023-05-10T08:10:32;2.35;;;1.30;;
78209;SDS011;67485;48.816;9.930;2023-05-10T08:12:58;1.80;;;1.20;;
78209;SDS011;67485;48.816;9.930;2023-05-10T08:15:24;6.07;;;1.65;;
78209;SDS011;67485;48.816;9.930;2023-05-10T08:17:53;3.85;;;1.40;;
78209;SDS011;67485;48.816;9.930;2023-05-10T08:20:19;2.33;;;1.40;;
78209;SDS011;67485;48.816;9.930;2023-05-10T08:22:45;5.57;;;1.50;;
78209;SDS011;67485;48.816;9.930;2023-05-10T08:25:11;2.20;;;1.30;;
78209;SDS011;67485;48.816;9.930;2023-05-10T08:27:37;1.70;;;1.35;;
78209;SDS011;67485;48.816;9.930;2023-05-10T08:30:03;2.00;;;1.07;;
78209;SDS011;67485;48.816;9.930;2023-05-10T08:32:30;2.70;;;1.45;;
78209;SDS011;67485;48.816;9.930;2023-05-10T08:34:56;3.17;;;1.45;;
78209;SDS011;67485;48.816;9.930;2023-05-10T08:37:22;2.20;;;1.10;;
78209;SDS011;67485;48.816;9.930;2023-05-10T08:39:48;2.83;;;1.25;;
78209;SDS011;67485;48.816;9.930;2023-05-10T08:42:15;3.17;;;1.33;;
78209;SDS011;67485;48.816;9.930;2023-05-10T08:44:44;3.30;;;1.20;;
78209;SDS011;67485;48.816;9.930;2023-05-10T08:47:12;2.22;;;1.20;;
78209;SDS011;67485;48.816;9.930;2023-05-10T08:49:41;2.03;;;1.00;;
78209;SDS011;67485;48.816;9.930;2023-05-10T08:52:09;2.00;;;1.20;;
78209;SDS011;67485;48.816;9.930;2023-05-10T08:54:37;4.10;;;1.07;;
78209;SDS011;67485;48.816;9.930;2023-05-10T08:57:03;1.88;;;1.10;;
78209;SDS011;67485;48.816;9.930;2023-05-10T08:59:29;1.80;;;1.10;;
78209;SDS011;67485;48.816;9.930;2023-05-10T09:01:58;3.10;;;1.00;;
78209;SDS011;67485;48.816;9.930;2023-05-10T09:04:24;1.77;;;1.10;;
78209;SDS011;67485;48.816;9.930;2023-05-10T09:06:51;3.45;;;1.10;;
78209;SDS011;67485;48.816;9.930;2023-05-10T09:09:17;5.10;;;1.20;;
78209;SDS011;67485;48.816;9.930;2023-05-10T09:11:44;2.17;;;1.20;;
78209;SDS011;67485;48.816;9.930;2023-05-10T09:14:10;1.60;;;1.02;;
78209;SDS011;67485;48.816;9.930;2023-05-10T09:16:38;1.50;;;1.02;;
78209;SDS011;67485;48.816;9.930;2023-05-10T09:19:04;1.77;;;1.20;;
78209;SDS011;67485;48.816;9.930;2023-05-10T09:21:32;2.63;;;1.30;;
78209;SDS011;67485;48.816;9.930;2023-05-10T09:24:02;1.67;;;1.00;;
78209;SDS011;67485;48.816;9.930;2023-05-10T09:26:30;1.92;;;1.10;;
78209;SDS011;67485;48.816;9.930;2023-05-10T09:28:56;3.08;;;1.25;;
78209;SDS011;67485;48.816;9.930;2023-05-10T09:31:24;2.63;;;1.20;;
78209;SDS011;67485;48.816;9.930;2023-05-10T09:33:51;1.63;;;1.00;;
78209;SDS011;67485;48.816;9.930;2023-05-10T09:36:17;1.70;;;1.00;;
78209;SDS011;67485;48.816;9.930;2023-05-10T09:38:49;1.77;;;1.10;;
78209;SDS011;67485;48.816;9.930;2023-05-10T09:41:20;3.10;;;0.80;;
78209;SDS011;67485;48.816;9.930;2023-05-10T09:43:47;1.98;;;1.30;;
78209;SDS011;67485;48.816;9.930;2023-05-10T09:46:14;1.60;;;1.13;;
78209;SDS011;67485;48.816;9.930;2023-05-10T09:48:44;2.20;;;1.20;;
78209;SDS011;67485;48.816;9.930;2023-05-10T09:51:21;2.50;;;1.30;;
78209;SDS011;67485;48.816;9.930;2023-05-10T09:53:47;4.20;;;0.90;;
78209;SDS011;67485;48.816;9.930;2023-05-10T09:56:34;1.67;;;0.80;;
78209;SDS011;67485;48.816;9.930;2023-05-10T09:59:04;1.55;;;0.82;;
78209;SDS011;67485;48.816;9.930;2023-05-10T10:01:30;2.15;;;1.05;;
78209;SDS011;67485;48.816;9.930;2023-05-10T10:03:56;2.27;;;0.90;;
78209;SDS011;67485;48.816;9.930;2023-05-10T10:06:23;1.98;;;0.85;;
78209;SDS011;67485;48.816;9.930;2023-05-10T10:08:50;1.95;;;0.93;;
78209;SDS011;67485;48.816;9.930;2023-05-10T10:11:16;1.83;;;0.80;;
78209;SDS011;67485;48.816;9.930;2023-05-10T10:13:42;2.57;;;1.00;;
78209;SDS011;67485;48.816;9.930;2023-05-10T10:16:08;2.17;;;1.10;;
78209;SDS011;67485;48.816;9.930;2023-05-10T10:18:35;2.40;;;1.05;;
78209;SDS011;67485;48.816;9.930;2023-05-10T10:21:07;2.20;;;1.02;;
78209;SDS011;67485;48.816;9.930;2023-05-10T10:23:36;2.45;;;0.85;;
78209;SDS011;67485;48.816;9.930;2023-05-10T10:26:02;1.52;;;0.88;;
78209;SDS011;67485;48.816;9.930;2023-05-10T10:31:15;4.40;;;1.20;;
78209;SDS011;67485;48.816;9.930;2023-05-10T10:36:12;3.23;;;1.00;;
78209;SDS011;67485;48.816;9.930;2023-05-10T10:57:28;2.67;;;0.70;;
78209;SDS011;67485;48.816;9.930;2023-05-10T11:02:44;4.50;;;0.90;;
78209;SDS011;67485;48.816;9.930;2023-05-10T11:07:54;1.67;;;1.00;;
78209;SDS011;67485;48.816;9.930;2023-05-10T11:10:21;5.78;;;0.93;;
78209;SDS011;67485;48.816;9.930;2023-05-10T11:13:07;1.52;;;0.93;;
78209;SDS011;67485;48.816;9.930;2023-05-10T11:15:35;1.30;;;0.80;;
78209;SDS011;67485;48.816;9.930;2023-05-10T11:20:51;2.30;;;1.00;;
78209;SDS011;67485;48.816;9.930;2023-05-10T11:23:58;1.98;;;0.70;;
78209;SDS011;67485;48.816;9.930;2023-05-10T11:26:17;1.27;;;0.70;;
78209;SDS011;67485;48.816;9.930;2023-05-10T11:31:09;1.50;;;0.80;;
78209;SDS011;67485;48.816;9.930;2023-05-10T11:36:18;1.25;;;0.73;;
78209;SDS011;67485;48.816;9.930;2023-05-10T11:38:45;1.98;;;0.82;;
78209;SDS011;67485;48.816;9.930;2023-05-10T11:41:12;3.20;;;1.00;;
78209;SDS011;67485;48.816;9.930;2023-05-10T11:43:38;3.40;;;1.33;;
78209;SDS011;67485;48.816;9.930;2023-05-10T11:46:05;4.18;;;1.25;;
78209;SDS011;67485;48.816;9.930;2023-05-10T11:48:33;3.22;;;1.10;;
78209;SDS011;67485;48.816;9.930;2023-05-10T11:50:58;1.67;;;0.90;;
78209;SDS011;67485;48.816;9.930;2023-05-10T11:53:27;1.10;;;0.80;;
78209;SDS011;67485;48.816;9.930;2023-05-10T11:56:03;1.30;;;0.82;;
78209;SDS011;67485;48.816;9.930;2023-05-10T11:58:30;2.22;;;0.90;;
78209;SDS011;67485;48.816;9.930;2023-05-10T12:00:57;1.92;;;0.90;;
78209;SDS011;67485;48.816;9.930;2023-05-10T12:03:24;3.07;;;1.20;;
78209;SDS011;67485;48.816;9.930;2023-05-10T12:05:49;2.30;;;1.05;;
78209;SDS011;67485;48.816;9.930;2023-05-10T12:08:19;3.45;;;1.73;;
78209;SDS011;67485;48.816;9.930;2023-05-10T12:10:49;5.60;;;2.75;;
78209;SDS011;67485;48.816;9.930;2023-05-10T12:13:15;6.20;;;2.60;;
78209;SDS011;67485;48.816;9.930;2023-05-10T12:15:42;4.63;;;2.22;;
78209;SDS011;67485;48.816;9.930;2023-05-10T12:18:12;2.10;;;1.20;;
78209;SDS011;67485;48.816;9.930;2023-05-10T12:20:38;3.65;;;1.10;;
78209;SDS011;67485;48.816;9.930;2023-05-10T12:23:04;1.70;;;1.00;;
78209;SDS011;67485;48.816;9.930;2023-05-10T12:25:32;3.73;;;1.30;;
78209;SDS011;67485;48.816;9.930;2023-05-10T12:27:59;3.78;;;1.40;;
78209;SDS011;67485;48.816;9.930;2023-05-10T12:30:28;4.10;;;1.00;;
78209;SDS011;67485;48.816;9.930;2023-05-10T12:35:31;2.00;;;1.00;;
78209;SDS011;67485;48.816;9.930;2023-05-10T12:37:58;2.23;;;1.17;;
78209;SDS011;67485;48.816;9.930;2023-05-10T12:40:24;1.40;;;0.80;;
78209;SDS011;67485;48.816;9.930;2023-05-10T12:42:49;2.60;;;1.00;;
78209;SDS011;67485;48.816;9.930;2023-05-10T12:45:16;2.03;;;0.97;;
78209;SDS011;67485;48.816;9.930;2023-05-10T12:47:43;1.95;;;1.02;;
78209;SDS011;67485;48.816;9.930;2023-05-10T12:50:08;2.05;;;0.80;;
78209;SDS011;67485;48.816;9.930;2023-05-10T12:52:35;1.67;;;0.85;;
78209;SDS011;67485;48.816;9.930;2023-05-10T12:55:01;3.53;;;1.00;;
78209;SDS011;67485;48.816;9.930;2023-05-10T12:57:29;2.20;;;1.48;;
78209;SDS011;67485;48.816;9.930;2023-05-10T12:59:55;4.68;;;1.15;;
78209;SDS011;67485;48.816;9.930;2023-05-10T13:02:21;3.97;;;0.80;;
78209;SDS011;67485;48.816;9.930;2023-05-10T13:04:48;6.60;;;0.93;;
78209;SDS011;67485;48.816;9.930;2023-05-10T13:07:14;2.13;;;0.90;;
78209;SDS011;67485;48.816;9.930;2023-05-10T13:09:40;3.40;;;0.90;;
78209;SDS011;67485;48.816;9.930;2023-05-10T13:12:06;1.55;;;0.93;;
78209;SDS011;67485;48.816;9.930;2023-05-10T13:14:31;2.63;;;0.80;;
78209;SDS011;67485;48.816;9.930;2023-05-10T13:16:57;1.73;;;0.85;;
78209;SDS011;67485;48.816;9.930;2023-05-10T13:19:23;1.63;;;0.83;;
78209;SDS011;67485;48.816;9.930;2023-05-10T13:21:48;1.85;;;0.70;;
78209;SDS011;67485;48.816;9.930;2023-05-10T13:24:14;1.43;;;0.60;;
78209;SDS011;67485;48.816;9.930;2023-05-10T13:26:40;4.50;;;0.80;;
78209;SDS011;67485;48.816;9.930;2023-05-10T13:29:06;3.20;;;0.80;;
78209;SDS011;67485;48.816;9.930;2023-05-10T13:31:32;2.75;;;0.70;;
78209;SDS011;67485;48.816;9.930;2023-05-10T13:33:59;1.80;;;0.70;;
78209;SDS011;67485;48.816;9.930;2023-05-10T13:36:25;1.67;;;0.70;;
78209;SDS011;67485;48.816;9.930;2023-05-10T13:38:50;3.33;;;0.80;;
78209;SDS011;67485;48.816;9.930;2023-05-10T13:41:16;3.53;;;0.90;;
78209;SDS011;67485;48.816;9.930;2023-05-10T13:43:41;2.97;;;0.77;;
78209;SDS011;67485;48.816;9.930;2023-05-10T13:46:07;2.28;;;0.80;;
78209;SDS011;67485;48.816;9.930;2023-05-10T13:48:33;1.40;;;0.70;;
78209;SDS011;67485;48.816;9.930;2023-05-10T13:50:58;1.58;;;0.80;;
78209;SDS011;67485;48.816;9.930;2023-05-10T13:53:24;2.47;;;0.90;;
78209;SDS011;67485;48.816;9.930;2023-05-10T13:55:50;2.05;;;0.80;;
78209;SDS011;67485;48.816;9.930;2023-05-10T13:58:16;5.23;;;0.80;;
78209;SDS011;67485;48.816;9.930;2023-05-10T14:00:41;3.40;;;1.10;;
78209;SDS011;67485;48.816;9.930;2023-05-10T14:03:07;3.23;;;0.80;;
78209;SDS011;67485;48.816;9.930;2023-05-10T14:05:36;7.30;;;1.08;;
78209;SDS011;67485;48.816;9.930;2023-05-10T14:08:02;5.10;;;0.90;;
78209;SDS011;67485;48.816;9.930;2023-05-10T14:10:28;1.80;;;0.87;;
78209;SDS011;67485;48.816;9.930;2023-05-10T14:12:53;1.25;;;0.70;;
78209;SDS011;67485;48.816;9.930;2023-05-10T14:15:19;4.30;;;0.90;;
78209;SDS011;67485;48.816;9.930;2023-05-10T14:17:44;2.45;;;1.00;;
78209;SDS011;67485;48.816;9.930;2023-05-10T14:20:10;2.23;;;0.90;;
78209;SDS011;67485;48.816;9.930;2023-05-10T14:22:36;1.88;;;0.80;;
78209;SDS011;67485;48.816;9.930;2023-05-10T14:25:02;2.17;;;1.00;;
78209;SDS011;67485;48.816;9.930;2023-05-10T14:27:28;4.20;;;1.23;;
78209;SDS011;67485;48.816;9.930;2023-05-10T14:29:54;2.80;;;1.30;;
78209;SDS011;67485;48.816;9.930;2023-05-10T14:32:19;2.05;;;1.00;;
78209;SDS011;67485;48.816;9.930;2023-05-10T14:34:45;3.17;;;1.10;;
78209;SDS011;67485;48.816;9.930;2023-05-10T14:37:13;3.13;;;1.00;;
78209;SDS011;67485;48.816;9.930;2023-05-10T14:39:40;2.90;;;1.00;;
78209;SDS011;67485;48.816;9.930;2023-05-10T14:42:07;2.67;;;0.82;;
78209;SDS011;67485;48.816;9.930;2023-05-10T14:44:33;2.83;;;1.00;;
78209;SDS011;67485;48.816;9.930;2023-05-10T14:46:59;2.17;;;1.20;;
78209;SDS011;67485;48.816;9.930;2023-05-10T14:49:25;5.13;;;1.35;;
78209;SDS011;67485;48.816;9.930;2023-05-10T14:51:51;2.88;;;0.93;;
78209;SDS011;67485;48.816;9.930;2023-05-10T14:54:17;2.67;;;1.10;;
78209;SDS011;67485;48.816;9.930;2023-05-10T14:56:43;2.27;;;0.87;;
78209;SDS011;67485;48.816;9.930;2023-05-10T14:59:08;4.03;;;1.10;;
78209;SDS011;67485;48.816;9.930;2023-05-10T15:01:34;4.00;;;1.03;;
78209;SDS011;67485;48.816;9.930;2023-05-10T15:04:05;2.28;;;1.02;;
78209;SDS011;67485;48.816;9.930;2023-05-10T15:06:31;3.50;;;1.13;;
78209;SDS011;67485;48.816;9.930;2023-05-10T15:08:58;7.25;;;1.27;;
78209;SDS011;67485;48.816;9.930;2023-05-10T15:11:23;3.20;;;1.00;;
78209;SDS011;67485;48.816;9.930;2023-05-10T15:13:49;3.93;;;1.10;;
78209;SDS011;67485;48.816;9.930;2023-05-10T15:16:15;5.10;;;1.20;;
78209;SDS011;67485;48.816;9.930;2023-05-10T15:18:40;2.40;;;1.10;;
78209;SDS011;67485;48.816;9.930;2023-05-10T15:21:06;2.17;;;1.07;;
78209;SDS011;67485;48.816;9.930;2023-05-10T15:23:31;2.70;;;1.13;;
78209;SDS011;67485;48.816;9.930;2023-05-10T15:25:57;3.22;;;1.40;;
78209;SDS011;67485;48.816;9.930;2023-05-10T15:28:23;3.73;;;1.03;;
78209;SDS011;67485;48.816;9.930;2023-05-10T15:33:51;4.22;;;1.00;;
78209;SDS011;67485;48.816;9.930;2023-05-10T15:36:26;3.15;;;1.25;;
78209;SDS011;67485;48.816;9.930;2023-05-10T15:38:55;3.60;;;1.30;;
78209;SDS011;67485;48.816;9.930;2023-05-10T15:42:17;3.08;;;1.30;;
78209;SDS011;67485;48.816;9.930;2023-05-10T15:44:43;5.68;;;1.25;;
78209;SDS011;67485;48.816;9.930;2023-05-10T15:47:09;2.33;;;1.10;;
78209;SDS011;67485;48.816;9.930;2023-05-10T15:49:35;3.22;;;1.30;;
78209;SDS011;67485;48.816;9.930;2023-05-10T15:52:01;2.63;;;1.25;;